createdAt,value
2023-04-18T00:08:44.158Z,1015.03
2023-04-18T00:18:43.168Z,1014.94
2023-04-18T00:28:43.405Z,1014.89
2023-04-18T00:38:43.597Z,1014.85
2023-04-18T00:48:43.788Z,1014.86
2023-04-18T00:58:43.994Z,1014.80
2023-04-18T01:08:44.243Z,1014.75
2023-04-18T01:18:44.436Z,1014.68
2023-04-18T01:28:44.703Z,1014.67
2023-04-18T01:38:44.896Z,1014.59
2023-04-18T01:48:45.171Z,1014.52
2023-04-18T01:58:45.191Z,1014.48
2023-04-18T02:08:45.447Z,1014.41
2023-04-18T02:18:45.487Z,1014.43
2023-04-18T02:28:47.665Z,1014.49
2023-04-18T02:38:45.878Z,1014.45
2023-04-18T02:48:46.086Z,1014.50
2023-04-18T02:58:46.271Z,1014.47
2023-04-18T03:08:48.512Z,1014.41
2023-04-18T03:18:46.703Z,1014.30
2023-04-18T03:28:46.935Z,1014.33
2023-04-18T03:38:47.163Z,1014.23
2023-04-18T03:48:47.397Z,1014.28
2023-04-18T03:58:47.620Z,1014.26
2023-04-18T04:08:47.875Z,1014.28
2023-04-18T04:18:48.110Z,1014.28
2023-04-18T04:28:48.350Z,1014.21
2023-04-18T04:38:48.545Z,1014.24
2023-04-18T04:48:48.810Z,1014.26
2023-04-18T04:58:49.018Z,1014.31
2023-04-18T05:08:49.295Z,1014.40
2023-04-18T05:18:49.300Z,1014.43
2023-04-18T05:28:52.627Z,1014.41
2023-04-18T05:38:49.635Z,1014.46
2023-04-18T05:48:50.093Z,1014.51
2023-04-18T05:58:50.190Z,1014.60
2023-04-18T06:08:50.310Z,1014.61
2023-04-18T06:18:50.325Z,1014.67
2023-04-18T06:28:53.745Z,1014.71
2023-04-18T06:38:50.763Z,1014.67
2023-04-18T06:48:51.573Z,1014.79
2023-04-18T06:58:51.171Z,1014.69
2023-04-18T07:08:53.950Z,1014.68
2023-04-18T07:18:51.662Z,1014.71
2023-04-18T07:28:51.888Z,1014.67
2023-04-18T07:38:52.102Z,1014.68
2023-04-18T07:48:52.361Z,1014.65
2023-04-18T07:58:52.434Z,1014.70
2023-04-18T08:08:52.726Z,1014.74
2023-04-18T08:18:52.729Z,1014.65
2023-04-18T08:28:56.065Z,1014.72
2023-04-18T08:38:53.065Z,1014.71
2023-04-18T08:48:53.369Z,1014.69
2023-04-18T08:58:53.374Z,1014.69
2023-04-18T09:08:53.637Z,1014.67
2023-04-18T09:18:53.835Z,1014.59
2023-04-18T09:28:54.125Z,1014.60
2023-04-18T09:38:56.658Z,1014.60
2023-04-18T09:48:54.378Z,1014.61
2023-04-18T09:58:54.386Z,1014.54
2023-04-18T10:08:54.654Z,1014.37
2023-04-18T10:18:54.663Z,1014.37
2023-04-18T10:28:55.926Z,1014.34
2023-04-18T10:38:55.136Z,1014.26
2023-04-18T10:48:55.388Z,1014.24
2023-04-18T10:58:55.584Z,1014.12
2023-04-18T11:08:55.864Z,1014.06
2023-04-18T11:18:55.911Z,1013.95
2023-04-18T11:28:56.175Z,1013.93
2023-04-18T11:38:56.371Z,1013.93
2023-04-18T11:48:56.590Z,1013.95
2023-04-18T11:58:56.790Z,1013.94
2023-04-18T12:08:57.010Z,1013.99
2023-04-18T12:18:57.225Z,1013.85
2023-04-18T12:28:57.418Z,1013.91
2023-04-18T12:38:57.634Z,1013.85
2023-04-18T12:48:57.901Z,1013.71
2023-04-18T12:58:57.926Z,1013.68
2023-04-18T13:08:58.278Z,1013.66
2023-04-18T13:18:58.286Z,1013.55
2023-04-18T13:28:58.544Z,1013.54
2023-04-18T13:38:58.755Z,1013.50
2023-04-18T13:48:59.022Z,1013.58
2023-04-18T13:58:59.216Z,1013.51
2023-04-18T14:08:59.496Z,1013.48
2023-04-18T14:18:59.511Z,1013.51
2023-04-18T14:28:59.761Z,1013.45
2023-04-18T14:38:59.972Z,1013.45
2023-04-18T14:49:00.253Z,1013.48
2023-04-18T14:59:00.472Z,1013.51
2023-04-18T15:09:00.716Z,1013.49
2023-04-18T15:19:00.997Z,1013.48
2023-04-18T15:29:01.087Z,1013.58
2023-04-18T15:39:01.380Z,1013.51
2023-04-18T15:49:01.495Z,1013.53
2023-04-18T15:59:01.460Z,1013.55
2023-04-18T16:09:01.728Z,1013.59
2023-04-18T16:19:01.736Z,1013.71
2023-04-18T16:29:01.981Z,1013.73
2023-04-18T16:39:02.338Z,1013.76
2023-04-18T16:49:02.474Z,1013.90
2023-04-18T16:59:02.692Z,1014.08
2023-04-18T17:09:02.636Z,1014.08
2023-04-18T17:19:02.828Z,1014.12
2023-04-18T17:29:03.906Z,1014.21
2023-04-18T17:39:03.380Z,1014.33
2023-04-18T17:49:03.479Z,1014.47
2023-04-18T17:59:03.692Z,1014.53
2023-04-18T18:09:03.942Z,1014.60
2023-04-18T18:19:04.430Z,1014.83
2023-04-18T18:29:04.410Z,1014.92
2023-04-18T18:39:04.638Z,1015.03
2023-04-18T18:49:08.224Z,1015.18
2023-04-18T18:59:05.048Z,1015.34
2023-04-18T19:09:05.047Z,1015.48
2023-04-18T19:19:05.369Z,1015.60
2023-04-18T19:29:06.630Z,1015.64
2023-04-18T19:39:05.350Z,1015.69
2023-04-18T19:49:05.994Z,1015.80
2023-04-18T19:59:06.094Z,1015.81
2023-04-18T20:09:05.853Z,1015.89
2023-04-18T20:19:06.134Z,1015.91
2023-04-18T20:29:06.553Z,1015.93
2023-04-18T20:39:08.333Z,1015.93
2023-04-18T20:49:06.703Z,1016.09
2023-04-18T20:59:06.781Z,1016.04
2023-04-18T21:09:07.056Z,1016.15
2023-04-18T21:19:07.059Z,1016.26
2023-04-18T21:29:07.348Z,1016.33
2023-04-18T21:39:07.370Z,1016.33
2023-04-18T21:49:07.607Z,1016.40
2023-04-18T21:59:07.826Z,1016.41
2023-04-18T22:09:08.072Z,1016.39
2023-04-18T22:19:08.277Z,1016.35
2023-04-18T22:29:08.536Z,1016.42
2023-04-18T22:39:08.741Z,1016.44
2023-04-18T22:49:09.024Z,1016.46
2023-04-18T22:59:09.031Z,1016.58
2023-04-18T23:09:09.291Z,1016.66
2023-04-18T23:19:09.318Z,1016.65
2023-04-18T23:29:09.577Z,1016.65
2023-04-18T23:39:09.791Z,1016.61
2023-04-18T23:49:10.034Z,1016.62
2023-04-18T23:59:10.262Z,1016.60
